sensor_id;sensor_type;location;lat;lon;timestamp;P1;durP1;ratioP1;P2;durP2;ratioP2
4102;SDS011;2065;49.790;9.620;2023-04-29T00:01:23;35.80;;;5.30;;
4102;SDS011;2065;49.790;9.620;2023-04-29T00:03:52;6.30;;;3.60;;
4102;SDS011;2065;49.790;9.620;2023-04-29T00:06:21;18.77;;;5.03;;
4102;SDS011;2065;49.790;9.620;2023-04-29T00:08:48;49.30;;;6.37;;
4102;SDS011;2065;49.790;9.620;2023-04-29T00:11:16;34.90;;;6.50;;
4102;SDS011;2065;49.790;9.620;2023-04-29T00:13:43;36.23;;;6.20;;
4102;SDS011;2065;49.790;9.620;2023-04-29T00:16:10;28.80;;;5.97;;
4102;SDS011;2065;49.790;9.620;2023-04-29T00:18:38;40.37;;;6.30;;
4102;SDS011;2065;49.790;9.620;2023-04-29T00:21:06;21.73;;;4.87;;
4102;SDS011;2065;49.790;9.620;2023-04-29T00:23:33;15.30;;;6.17;;
4102;SDS011;2065;49.790;9.620;2023-04-29T00:26:00;61.93;;;6.70;;
4102;SDS011;2065;49.790;9.620;2023-04-29T00:28:28;33.60;;;6.20;;
4102;SDS011;2065;49.790;9.620;2023-04-29T00:30:55;12.03;;;4.80;;
4102;SDS011;2065;49.790;9.620;2023-04-29T00:33:22;46.43;;;6.70;;
4102;SDS011;2065;49.790;9.620;2023-04-29T00:35:49;101.73;;;7.70;;
4102;SDS011;2065;49.790;9.620;2023-04-29T00:38:18;56.07;;;6.33;;
4102;SDS011;2065;49.790;9.620;2023-04-29T00:40:45;76.50;;;8.27;;
4102;SDS011;2065;49.790;9.620;2023-04-29T00:43:12;142.63;;;7.07;;
4102;SDS011;2065;49.790;9.620;2023-04-29T00:45:39;6.60;;;3.20;;
4102;SDS011;2065;49.790;9.620;2023-04-29T00:48:06;20.53;;;3.47;;
4102;SDS011;2065;49.790;9.620;2023-04-29T00:50:33;89.57;;;7.30;;
4102;SDS011;2065;49.790;9.620;2023-04-29T00:53:01;15.73;;;4.60;;
4102;SDS011;2065;49.790;9.620;2023-04-29T00:55:29;7.83;;;3.67;;
4102;SDS011;2065;49.790;9.620;2023-04-29T00:57:58;3.37;;;3.07;;
4102;SDS011;2065;49.790;9.620;2023-04-29T01:00:27;5.63;;;3.10;;
4102;SDS011;2065;49.790;9.620;2023-04-29T01:02:54;3.30;;;2.70;;
4102;SDS011;2065;49.790;9.620;2023-04-29T01:05:22;4.50;;;2.97;;
4102;SDS011;2065;49.790;9.620;2023-04-29T01:07:52;3.47;;;3.10;;
4102;SDS011;2065;49.790;9.620;2023-04-29T01:10:31;3.63;;;3.33;;
4102;SDS011;2065;49.790;9.620;2023-04-29T01:13:05;5.43;;;4.43;;
4102;SDS011;2065;49.790;9.620;2023-04-29T01:15:38;8.00;;;3.90;;
4102;SDS011;2065;49.790;9.620;2023-04-29T01:18:14;23.03;;;3.70;;
4102;SDS011;2065;49.790;9.620;2023-04-29T01:20:48;6.17;;;4.40;;
4102;SDS011;2065;49.790;9.620;2023-04-29T01:23:16;15.30;;;4.60;;
4102;SDS011;2065;49.790;9.620;2023-04-29T01:25:46;53.50;;;6.63;;
4102;SDS011;2065;49.790;9.620;2023-04-29T01:28:26;82.07;;;6.27;;
4102;SDS011;2065;49.790;9.620;2023-04-29T01:31:06;24.53;;;5.17;;
4102;SDS011;2065;49.790;9.620;2023-04-29T01:33:39;14.40;;;4.63;;
4102;SDS011;2065;49.790;9.620;2023-04-29T01:36:12;23.87;;;4.53;;
4102;SDS011;2065;49.790;9.620;2023-04-29T01:38:52;18.73;;;3.80;;
4102;SDS011;2065;49.790;9.620;2023-04-29T01:41:33;69.40;;;6.00;;
4102;SDS011;2065;49.790;9.620;2023-04-29T01:44:23;59.53;;;6.30;;
4102;SDS011;2065;49.790;9.620;2023-04-29T01:46:56;58.90;;;8.23;;
4102;SDS011;2065;49.790;9.620;2023-04-29T01:49:34;5.40;;;3.43;;
4102;SDS011;2065;49.790;9.620;2023-04-29T01:52:02;6.67;;;3.40;;
4102;SDS011;2065;49.790;9.620;2023-04-29T01:54:30;12.07;;;3.67;;
4102;SDS011;2065;49.790;9.620;2023-04-29T01:57:02;20.00;;;5.10;;
4102;SDS011;2065;49.790;9.620;2023-04-29T01:59:54;6.43;;;3.93;;
4102;SDS011;2065;49.790;9.620;2023-04-29T02:02:41;34.30;;;6.57;;
4102;SDS011;2065;49.790;9.620;2023-04-29T02:05:37;83.40;;;8.47;;
4102;SDS011;2065;49.790;9.620;2023-04-29T02:08:04;10.97;;;4.63;;
4102;SDS011;2065;49.790;9.620;2023-04-29T02:10:37;42.30;;;6.93;;
4102;SDS011;2065;49.790;9.620;2023-04-29T02:13:26;16.90;;;6.13;;
4102;SDS011;2065;49.790;9.620;2023-04-29T02:15:54;26.10;;;5.40;;
4102;SDS011;2065;49.790;9.620;2023-04-29T02:18:22;47.93;;;6.87;;
4102;SDS011;2065;49.790;9.620;2023-04-29T02:20:49;7.67;;;4.43;;
4102;SDS011;2065;49.790;9.620;2023-04-29T02:23:18;18.40;;;5.57;;
4102;SDS011;2065;49.790;9.620;2023-04-29T02:25:46;35.03;;;5.37;;
4102;SDS011;2065;49.790;9.620;2023-04-29T02:28:13;43.83;;;5.63;;
4102;SDS011;2065;49.790;9.620;2023-04-29T02:30:43;78.80;;;7.13;;
4102;SDS011;2065;49.790;9.620;2023-04-29T02:33:10;18.43;;;4.40;;
4102;SDS011;2065;49.790;9.620;2023-04-29T02:35:37;28.80;;;5.77;;
4102;SDS011;2065;49.790;9.620;2023-04-29T02:38:04;19.23;;;4.60;;
4102;SDS011;2065;49.790;9.620;2023-04-29T02:40:32;30.97;;;5.33;;
4102;SDS011;2065;49.790;9.620;2023-04-29T02:42:59;61.53;;;5.73;;
4102;SDS011;2065;49.790;9.620;2023-04-29T02:45:27;19.50;;;5.40;;
4102;SDS011;2065;49.790;9.620;2023-04-29T02:47:56;37.00;;;6.00;;
4102;SDS011;2065;49.790;9.620;2023-04-29T02:50:42;14.50;;;4.20;;
4102;SDS011;2065;49.790;9.620;2023-04-29T02:53:28;17.97;;;5.50;;
4102;SDS011;2065;49.790;9.620;2023-04-29T02:55:55;12.17;;;4.73;;
4102;SDS011;2065;49.790;9.620;2023-04-29T02:58:23;10.53;;;4.07;;
4102;SDS011;2065;49.790;9.620;2023-04-29T03:00:50;10.20;;;4.13;;
4102;SDS011;2065;49.790;9.620;2023-04-29T03:03:19;34.67;;;5.60;;
4102;SDS011;2065;49.790;9.620;2023-04-29T03:05:47;43.70;;;7.47;;
4102;SDS011;2065;49.790;9.620;2023-04-29T03:08:14;47.13;;;5.50;;
4102;SDS011;2065;49.790;9.620;2023-04-29T03:10:41;11.20;;;5.97;;
4102;SDS011;2065;49.790;9.620;2023-04-29T03:13:09;7.00;;;4.77;;
4102;SDS011;2065;49.790;9.620;2023-04-29T03:15:36;7.53;;;5.60;;
4102;SDS011;2065;49.790;9.620;2023-04-29T03:18:04;6.33;;;4.93;;
4102;SDS011;2065;49.790;9.620;2023-04-29T03:20:34;7.67;;;4.93;;
4102;SDS011;2065;49.790;9.620;2023-04-29T03:23:03;21.67;;;5.20;;
4102;SDS011;2065;49.790;9.620;2023-04-29T03:25:30;12.67;;;5.40;;
4102;SDS011;2065;49.790;9.620;2023-04-29T03:27:57;7.90;;;4.70;;
4102;SDS011;2065;49.790;9.620;2023-04-29T03:30:24;8.30;;;5.40;;
4102;SDS011;2065;49.790;9.620;2023-04-29T03:32:55;6.00;;;4.20;;
4102;SDS011;2065;49.790;9.620;2023-04-29T03:35:23;5.30;;;4.00;;
4102;SDS011;2065;49.790;9.620;2023-04-29T03:38:10;6.80;;;4.10;;
4102;SDS011;2065;49.790;9.620;2023-04-29T03:40:37;5.30;;;3.90;;
4102;SDS011;2065;49.790;9.620;2023-04-29T03:43:05;7.43;;;4.60;;
4102;SDS011;2065;49.790;9.620;2023-04-29T03:45:33;7.63;;;4.90;;
4102;SDS011;2065;49.790;9.620;2023-04-29T03:48:01;6.70;;;4.80;;
4102;SDS011;2065;49.790;9.620;2023-04-29T03:50:28;8.23;;;4.57;;
4102;SDS011;2065;49.790;9.620;2023-04-29T03:52:55;7.03;;;5.50;;
4102;SDS011;2065;49.790;9.620;2023-04-29T03:55:24;6.70;;;4.90;;
4102;SDS011;2065;49.790;9.620;2023-04-29T03:57:51;7.17;;;5.33;;
4102;SDS011;2065;49.790;9.620;2023-04-29T04:00:18;8.27;;;5.93;;
4102;SDS011;2065;49.790;9.620;2023-04-29T04:02:51;7.60;;;5.33;;
4102;SDS011;2065;49.790;9.620;2023-04-29T04:05:18;6.03;;;5.13;;
4102;SDS011;2065;49.790;9.620;2023-04-29T04:07:53;10.77;;;5.67;;
4102;SDS011;2065;49.790;9.620;2023-04-29T04:10:36;7.63;;;5.20;;
4102;SDS011;2065;49.790;9.620;2023-04-29T04:13:13;7.37;;;5.20;;
4102;SDS011;2065;49.790;9.620;2023-04-29T04:15:41;7.53;;;5.83;;
4102;SDS011;2065;49.790;9.620;2023-04-29T04:18:15;9.77;;;6.20;;
4102;SDS011;2065;49.790;9.620;2023-04-29T04:20:42;7.83;;;5.87;;
4102;SDS011;2065;49.790;9.620;2023-04-29T04:23:10;9.80;;;5.70;;
4102;SDS011;2065;49.790;9.620;2023-04-29T04:25:40;10.40;;;5.83;;
4102;SDS011;2065;49.790;9.620;2023-04-29T04:28:31;12.27;;;6.40;;
4102;SDS011;2065;49.790;9.620;2023-04-29T04:31:04;17.83;;;7.20;;
4102;SDS011;2065;49.790;9.620;2023-04-29T04:33:33;22.37;;;7.77;;
4102;SDS011;2065;49.790;9.620;2023-04-29T04:36:00;13.07;;;7.43;;
4102;SDS011;2065;49.790;9.620;2023-04-29T04:38:28;12.63;;;7.90;;
4102;SDS011;2065;49.790;9.620;2023-04-29T04:40:59;10.90;;;7.50;;
4102;SDS011;2065;49.790;9.620;2023-04-29T04:43:33;10.90;;;7.70;;
4102;SDS011;2065;49.790;9.620;2023-04-29T04:46:08;9.70;;;6.80;;
4102;SDS011;2065;49.790;9.620;2023-04-29T04:48:37;10.20;;;6.67;;
4102;SDS011;2065;49.790;9.620;2023-04-29T04:51:07;9.47;;;6.47;;
4102;SDS011;2065;49.790;9.620;2023-04-29T04:53:35;8.73;;;6.60;;
4102;SDS011;2065;49.790;9.620;2023-04-29T04:56:08;11.70;;;6.27;;
4102;SDS011;2065;49.790;9.620;2023-04-29T04:58:36;8.47;;;6.87;;
4102;SDS011;2065;49.790;9.620;2023-04-29T05:01:03;8.83;;;6.10;;
4102;SDS011;2065;49.790;9.620;2023-04-29T05:03:31;9.17;;;6.80;;
4102;SDS011;2065;49.790;9.620;2023-04-29T05:05:59;6.63;;;5.90;;
4102;SDS011;2065;49.790;9.620;2023-04-29T05:08:28;7.37;;;5.13;;
4102;SDS011;2065;49.790;9.620;2023-04-29T05:10:59;9.73;;;6.20;;
4102;SDS011;2065;49.790;9.620;2023-04-29T05:13:27;7.70;;;6.03;;
4102;SDS011;2065;49.790;9.620;2023-04-29T05:15:55;7.70;;;6.37;;
4102;SDS011;2065;49.790;9.620;2023-04-29T05:18:27;9.20;;;6.23;;
4102;SDS011;2065;49.790;9.620;2023-04-29T05:20:54;9.20;;;6.53;;
4102;SDS011;2065;49.790;9.620;2023-04-29T05:23:21;8.43;;;6.57;;
4102;SDS011;2065;49.790;9.620;2023-04-29T05:25:48;11.10;;;7.90;;
4102;SDS011;2065;49.790;9.620;2023-04-29T05:28:16;8.97;;;6.80;;
4102;SDS011;2065;49.790;9.620;2023-04-29T05:30:45;11.00;;;6.73;;
4102;SDS011;2065;49.790;9.620;2023-04-29T05:33:13;8.67;;;6.40;;
4102;SDS011;2065;49.790;9.620;2023-04-29T05:35:42;10.70;;;6.60;;
4102;SDS011;2065;49.790;9.620;2023-04-29T05:38:09;9.90;;;7.50;;
4102;SDS011;2065;49.790;9.620;2023-04-29T05:40:45;12.10;;;7.90;;
4102;SDS011;2065;49.790;9.620;2023-04-29T05:43:34;8.77;;;6.90;;
4102;SDS011;2065;49.790;9.620;2023-04-29T05:46:03;7.57;;;6.20;;
4102;SDS011;2065;49.790;9.620;2023-04-29T05:48:30;9.43;;;7.80;;
4102;SDS011;2065;49.790;9.620;2023-04-29T05:50:57;7.90;;;6.67;;
4102;SDS011;2065;49.790;9.620;2023-04-29T05:53:25;8.70;;;6.67;;
4102;SDS011;2065;49.790;9.620;2023-04-29T05:55:52;7.23;;;6.03;;
4102;SDS011;2065;49.790;9.620;2023-04-29T05:58:20;7.40;;;6.60;;
4102;SDS011;2065;49.790;9.620;2023-04-29T06:00:48;8.73;;;6.33;;
4102;SDS011;2065;49.790;9.620;2023-04-29T06:03:21;6.63;;;5.87;;
4102;SDS011;2065;49.790;9.620;2023-04-29T06:05:55;9.57;;;6.27;;
4102;SDS011;2065;49.790;9.620;2023-04-29T06:08:36;12.40;;;6.40;;
4102;SDS011;2065;49.790;9.620;2023-04-29T06:11:12;8.30;;;6.00;;
4102;SDS011;2065;49.790;9.620;2023-04-29T06:13:40;6.50;;;5.70;;
4102;SDS011;2065;49.790;9.620;2023-04-29T06:16:07;8.20;;;6.20;;
4102;SDS011;2065;49.790;9.620;2023-04-29T06:18:36;12.20;;;10.43;;
4102;SDS011;2065;49.790;9.620;2023-04-29T06:21:03;10.57;;;7.83;;
4102;SDS011;2065;49.790;9.620;2023-04-29T06:23:30;9.30;;;6.20;;
4102;SDS011;2065;49.790;9.620;2023-04-29T06:26:00;7.80;;;6.20;;
4102;SDS011;2065;49.790;9.620;2023-04-29T06:28:28;8.80;;;6.50;;
4102;SDS011;2065;49.790;9.620;2023-04-29T06:30:55;11.47;;;6.97;;
4102;SDS011;2065;49.790;9.620;2023-04-29T06:33:23;8.77;;;7.17;;
4102;SDS011;2065;49.790;9.620;2023-04-29T06:35:52;8.83;;;7.00;;
4102;SDS011;2065;49.790;9.620;2023-04-29T06:38:42;9.30;;;6.93;;
4102;SDS011;2065;49.790;9.620;2023-04-29T06:41:21;8.33;;;6.93;;
4102;SDS011;2065;49.790;9.620;2023-04-29T06:44:03;8.53;;;6.87;;
4102;SDS011;2065;49.790;9.620;2023-04-29T06:46:46;11.80;;;7.53;;
4102;SDS011;2065;49.790;9.620;2023-04-29T06:49:24;10.50;;;8.80;;
4102;SDS011;2065;49.790;9.620;2023-04-29T06:51:53;11.37;;;7.00;;
4102;SDS011;2065;49.790;9.620;2023-04-29T06:54:20;10.40;;;8.07;;
4102;SDS011;2065;49.790;9.620;2023-04-29T06:56:49;9.40;;;7.30;;
4102;SDS011;2065;49.790;9.620;2023-04-29T06:59:16;8.53;;;6.17;;
4102;SDS011;2065;49.790;9.620;2023-04-29T07:01:43;12.40;;;6.53;;
4102;SDS011;2065;49.790;9.620;2023-04-29T07:04:10;11.17;;;8.00;;
4102;SDS011;2065;49.790;9.620;2023-04-29T07:06:38;11.10;;;7.83;;
4102;SDS011;2065;49.790;9.620;2023-04-29T07:09:06;12.10;;;6.97;;
4102;SDS011;2065;49.790;9.620;2023-04-29T07:11:35;10.83;;;7.30;;
4102;SDS011;2065;49.790;9.620;2023-04-29T07:14:02;11.90;;;7.53;;
4102;SDS011;2065;49.790;9.620;2023-04-29T07:16:30;11.60;;;7.70;;
4102;SDS011;2065;49.790;9.620;2023-04-29T07:18:57;10.30;;;7.60;;
4102;SDS011;2065;49.790;9.620;2023-04-29T07:21:24;13.93;;;8.50;;
4102;SDS011;2065;49.790;9.620;2023-04-29T07:23:52;10.30;;;7.53;;
4102;SDS011;2065;49.790;9.620;2023-04-29T07:26:22;11.73;;;8.27;;
4102;SDS011;2065;49.790;9.620;2023-04-29T07:28:49;10.63;;;7.77;;
4102;SDS011;2065;49.790;9.620;2023-04-29T07:31:17;11.90;;;7.20;;
4102;SDS011;2065;49.790;9.620;2023-04-29T07:33:44;9.77;;;6.90;;
4102;SDS011;2065;49.790;9.620;2023-04-29T07:36:15;11.80;;;6.87;;
4102;SDS011;2065;49.790;9.620;2023-04-29T07:38:42;10.20;;;7.40;;
4102;SDS011;2065;49.790;9.620;2023-04-29T07:41:09;10.00;;;7.77;;
4102;SDS011;2065;49.790;9.620;2023-04-29T07:43:37;8.07;;;6.20;;
4102;SDS011;2065;49.790;9.620;2023-04-29T07:46:05;9.40;;;6.50;;
4102;SDS011;2065;49.790;9.620;2023-04-29T07:48:35;10.73;;;6.90;;
4102;SDS011;2065;49.790;9.620;2023-04-29T07:51:03;11.03;;;6.80;;
4102;SDS011;2065;49.790;9.620;2023-04-29T07:53:30;9.80;;;6.13;;
4102;SDS011;2065;49.790;9.620;2023-04-29T07:55:57;7.63;;;5.07;;
4102;SDS011;2065;49.790;9.620;2023-04-29T07:58:26;4.87;;;4.33;;
4102;SDS011;2065;49.790;9.620;2023-04-29T08:00:56;5.77;;;4.80;;
4102;SDS011;2065;49.790;9.620;2023-04-29T08:03:23;5.17;;;4.20;;
4102;SDS011;2065;49.790;9.620;2023-04-29T08:05:50;5.13;;;4.07;;
4102;SDS011;2065;49.790;9.620;2023-04-29T08:08:17;5.57;;;4.50;;
4102;SDS011;2065;49.790;9.620;2023-04-29T08:10:44;5.43;;;4.37;;
4102;SDS011;2065;49.790;9.620;2023-04-29T08:13:11;6.90;;;4.23;;
4102;SDS011;2065;49.790;9.620;2023-04-29T08:15:38;5.50;;;4.60;;
4102;SDS011;2065;49.790;9.620;2023-04-29T08:18:06;7.53;;;4.80;;
4102;SDS011;2065;49.790;9.620;2023-04-29T08:20:34;5.30;;;4.53;;
4102;SDS011;2065;49.790;9.620;2023-04-29T08:23:01;7.53;;;4.93;;
4102;SDS011;2065;49.790;9.620;2023-04-29T08:25:28;7.90;;;4.67;;
4102;SDS011;2065;49.790;9.620;2023-04-29T08:27:55;9.13;;;4.87;;
4102;SDS011;2065;49.790;9.620;2023-04-29T08:30:22;7.40;;;4.77;;
4102;SDS011;2065;49.790;9.620;2023-04-29T08:32:49;5.80;;;4.33;;
4102;SDS011;2065;49.790;9.620;2023-04-29T08:35:18;6.67;;;5.07;;
4102;SDS011;2065;49.790;9.620;2023-04-29T08:37:45;7.13;;;5.23;;
4102;SDS011;2065;49.790;9.620;2023-04-29T08:40:12;6.67;;;4.80;;
4102;SDS011;2065;49.790;9.620;2023-04-29T08:42:39;6.47;;;4.93;;
4102;SDS011;2065;49.790;9.620;2023-04-29T08:45:09;6.13;;;4.30;;
4102;SDS011;2065;49.790;9.620;2023-04-29T08:47:38;4.80;;;4.30;;
4102;SDS011;2065;49.790;9.620;2023-04-29T08:50:06;7.23;;;4.47;;
4102;SDS011;2065;49.790;9.620;2023-04-29T08:52:36;4.33;;;3.93;;
4102;SDS011;2065;49.790;9.620;2023-04-29T08:55:03;7.00;;;4.00;;
4102;SDS011;2065;49.790;9.620;2023-04-29T08:57:32;4.80;;;4.33;;
4102;SDS011;2065;49.790;9.620;2023-04-29T09:00:04;5.83;;;3.87;;
4102;SDS011;2065;49.790;9.620;2023-04-29T09:02:36;5.17;;;4.33;;
4102;SDS011;2065;49.790;9.620;2023-04-29T09:05:07;6.13;;;3.63;;
4102;SDS011;2065;49.790;9.620;2023-04-29T09:07:37;5.57;;;4.40;;
4102;SDS011;2065;49.790;9.620;2023-04-29T09:10:04;4.97;;;3.80;;
4102;SDS011;2065;49.790;9.620;2023-04-29T09:12:32;4.30;;;3.90;;
4102;SDS011;2065;49.790;9.620;2023-04-29T09:15:00;5.33;;;4.20;;
4102;SDS011;2065;49.790;9.620;2023-04-29T09:17:37;4.90;;;4.10;;
4102;SDS011;2065;49.790;9.620;2023-04-29T09:20:17;6.00;;;4.37;;
4102;SDS011;2065;49.790;9.620;2023-04-29T09:22:53;3.87;;;3.47;;
4102;SDS011;2065;49.790;9.620;2023-04-29T09:25:21;5.97;;;3.90;;
4102;SDS011;2065;49.790;9.620;2023-04-29T09:27:49;4.17;;;3.77;;
4102;SDS011;2065;49.790;9.620;2023-04-29T09:30:16;6.00;;;3.70;;
4102;SDS011;2065;49.790;9.620;2023-04-29T09:32:44;4.50;;;3.80;;
4102;SDS011;2065;49.790;9.620;2023-04-29T09:35:21;4.20;;;3.80;;
4102;SDS011;2065;49.790;9.620;2023-04-29T09:37:49;3.53;;;3.23;;
4102;SDS011;2065;49.790;9.620;2023-04-29T09:42:56;4.20;;;3.80;;
4102;SDS011;2065;49.790;9.620;2023-04-29T09:45:33;3.40;;;3.00;;
4102;SDS011;2065;49.790;9.620;2023-04-29T09:48:01;2.60;;;2.40;;
4102;SDS011;2065;49.790;9.620;2023-04-29T09:50:29;4.00;;;3.33;;
4102;SDS011;2065;49.790;9.620;2023-04-29T09:52:56;3.40;;;2.97;;
4102;SDS011;2065;49.790;9.620;2023-04-29T09:55:23;4.17;;;2.90;;
4102;SDS011;2065;49.790;9.620;2023-04-29T09:57:52;3.20;;;2.60;;
4102;SDS011;2065;49.790;9.620;2023-04-29T10:00:19;3.00;;;2.70;;
4102;SDS011;2065;49.790;9.620;2023-04-29T10:02:46;3.00;;;2.23;;
4102;SDS011;2065;49.790;9.620;2023-04-29T10:05:15;3.50;;;2.70;;
4102;SDS011;2065;49.790;9.620;2023-04-29T10:07:42;3.13;;;2.63;;
4102;SDS011;2065;49.790;9.620;2023-04-29T10:10:12;3.57;;;3.23;;
4102;SDS011;2065;49.790;9.620;2023-04-29T10:12:40;5.80;;;3.17;;
4102;SDS011;2065;49.790;9.620;2023-04-29T10:15:11;2.90;;;2.70;;
4102;SDS011;2065;49.790;9.620;2023-04-29T10:17:46;2.53;;;2.33;;
4102;SDS011;2065;49.790;9.620;2023-04-29T10:20:20;2.83;;;2.40;;
4102;SDS011;2065;49.790;9.620;2023-04-29T10:22:49;4.10;;;2.90;;
4102;SDS011;2065;49.790;9.620;2023-04-29T10:25:17;2.23;;;2.03;;
4102;SDS011;2065;49.790;9.620;2023-04-29T10:27:46;4.13;;;3.10;;
4102;SDS011;2065;49.790;9.620;2023-04-29T10:30:16;5.40;;;2.70;;
4102;SDS011;2065;49.790;9.620;2023-04-29T10:32:43;3.30;;;2.67;;
4102;SDS011;2065;49.790;9.620;2023-04-29T10:35:12;3.43;;;2.63;;
4102;SDS011;2065;49.790;9.620;2023-04-29T10:37:40;4.33;;;2.70;;
4102;SDS011;2065;49.790;9.620;2023-04-29T10:40:10;3.10;;;2.43;;
4102;SDS011;2065;49.790;9.620;2023-04-29T10:42:42;3.47;;;2.90;;
4102;SDS011;2065;49.790;9.620;2023-04-29T10:45:19;2.53;;;2.33;;
4102;SDS011;2065;49.790;9.620;2023-04-29T10:48:10;5.83;;;3.37;;
4102;SDS011;2065;49.790;9.620;2023-04-29T10:50:39;3.00;;;2.70;;
4102;SDS011;2065;49.790;9.620;2023-04-29T10:53:24;3.60;;;2.73;;
4102;SDS011;2065;49.790;9.620;2023-04-29T10:55:53;4.50;;;2.30;;
4102;SDS011;2065;49.790;9.620;2023-04-29T11:01:12;3.37;;;2.73;;
4102;SDS011;2065;49.790;9.620;2023-04-29T11:03:47;2.50;;;2.30;;
4102;SDS011;2065;49.790;9.620;2023-04-29T11:06:23;2.90;;;2.30;;
4102;SDS011;2065;49.790;9.620;2023-04-29T11:09:01;2.30;;;2.03;;
4102;SDS011;2065;49.790;9.620;2023-04-29T11:11:39;2.80;;;2.47;;
4102;SDS011;2065;49.790;9.620;2023-04-29T11:14:07;2.53;;;2.07;;
4102;SDS011;2065;49.790;9.620;2023-04-29T11:16:37;2.00;;;1.80;;
4102;SDS011;2065;49.790;9.620;2023-04-29T11:19:13;2.60;;;2.30;;
4102;SDS011;2065;49.790;9.620;2023-04-29T11:21:41;2.10;;;1.87;;
4102;SDS011;2065;49.790;9.620;2023-04-29T11:24:10;2.30;;;2.00;;
4102;SDS011;2065;49.790;9.620;2023-04-29T11:26:39;2.53;;;2.07;;
4102;SDS011;2065;49.790;9.620;2023-04-29T11:29:07;3.00;;;2.10;;
4102;SDS011;2065;49.790;9.620;2023-04-29T11:31:35;3.20;;;2.00;;
4102;SDS011;2065;49.790;9.620;2023-04-29T11:34:04;3.90;;;2.27;;
4102;SDS011;2065;49.790;9.620;2023-04-29T11:36:32;2.90;;;2.03;;
4102;SDS011;2065;49.790;9.620;2023-04-29T11:39:01;2.20;;;2.00;;
4102;SDS011;2065;49.790;9.620;2023-04-29T11:41:29;2.53;;;2.07;;
4102;SDS011;2065;49.790;9.620;2023-04-29T11:43:57;2.63;;;2.20;;
4102;SDS011;2065;49.790;9.620;2023-04-29T11:46:25;3.20;;;2.17;;
4102;SDS011;2065;49.790;9.620;2023-04-29T11:48:57;4.07;;;2.10;;
4102;SDS011;2065;49.790;9.620;2023-04-29T11:51:25;6.37;;;2.43;;
4102;SDS011;2065;49.790;9.620;2023-04-29T11:53:53;3.20;;;2.20;;
4102;SDS011;2065;49.790;9.620;2023-04-29T11:56:22;5.93;;;2.10;;
4102;SDS011;2065;49.790;9.620;2023-04-29T11:58:52;4.00;;;2.10;;
4102;SDS011;2065;49.790;9.620;2023-04-29T12:01:20;3.90;;;2.50;;
4102;SDS011;2065;49.790;9.620;2023-04-29T12:03:48;3.70;;;3.00;;
4102;SDS011;2065;49.790;9.620;2023-04-29T12:06:16;3.30;;;2.40;;
4102;SDS011;2065;49.790;9.620;2023-04-29T12:08:45;3.20;;;2.60;;
4102;SDS011;2065;49.790;9.620;2023-04-29T12:11:13;4.47;;;2.37;;
4102;SDS011;2065;49.790;9.620;2023-04-29T12:13:40;3.17;;;2.83;;
4102;SDS011;2065;49.790;9.620;2023-04-29T12:16:07;3.60;;;3.00;;
4102;SDS011;2065;49.790;9.620;2023-04-29T12:18:35;4.77;;;3.07;;
4102;SDS011;2065;49.790;9.620;2023-04-29T12:21:03;3.80;;;2.20;;
4102;SDS011;2065;49.790;9.620;2023-04-29T12:23:32;2.67;;;2.13;;
4102;SDS011;2065;49.790;9.620;2023-04-29T12:26:01;2.17;;;1.93;;
4102;SDS011;2065;49.790;9.620;2023-04-29T12:28:29;2.87;;;2.20;;
4102;SDS011;2065;49.790;9.620;2023-04-29T12:30:57;2.10;;;1.90;;
4102;SDS011;2065;49.790;9.620;2023-04-29T12:33:26;3.23;;;2.27;;
4102;SDS011;2065;49.790;9.620;2023-04-29T12:35:55;6.60;;;3.43;;
4102;SDS011;2065;49.790;9.620;2023-04-29T12:38:23;3.70;;;2.73;;
4102;SDS011;2065;49.790;9.620;2023-04-29T12:40:53;2.57;;;2.10;;
4102;SDS011;2065;49.790;9.620;2023-04-29T12:43:24;2.60;;;2.10;;
4102;SDS011;2065;49.790;9.620;2023-04-29T12:45:53;7.37;;;3.37;;
4102;SDS011;2065;49.790;9.620;2023-04-29T12:48:21;2.07;;;1.70;;
4102;SDS011;2065;49.790;9.620;2023-04-29T12:50:55;10.37;;;4.20;;
4102;SDS011;2065;49.790;9.620;2023-04-29T12:53:24;2.33;;;1.80;;
4102;SDS011;2065;49.790;9.620;2023-04-29T12:55:52;5.23;;;2.47;;
4102;SDS011;2065;49.790;9.620;2023-04-29T12:58:19;2.37;;;1.77;;
4102;SDS011;2065;49.790;9.620;2023-04-29T13:00:46;2.53;;;1.80;;
4102;SDS011;2065;49.790;9.620;2023-04-29T13:03:13;2.87;;;2.40;;
4102;SDS011;2065;49.790;9.620;2023-04-29T13:05:41;3.03;;;2.70;;
4102;SDS011;2065;49.790;9.620;2023-04-29T13:08:08;2.70;;;2.13;;
4102;SDS011;2065;49.790;9.620;2023-04-29T13:10:35;3.63;;;2.83;;
4102;SDS011;2065;49.790;9.620;2023-04-29T13:13:03;3.03;;;2.73;;
4102;SDS011;2065;49.790;9.620;2023-04-29T13:15:30;2.03;;;1.80;;
4102;SDS011;2065;49.790;9.620;2023-04-29T13:17:58;9.93;;;2.70;;
4102;SDS011;2065;49.790;9.620;2023-04-29T13:20:25;2.73;;;2.53;;
4102;SDS011;2065;49.790;9.620;2023-04-29T13:22:52;2.40;;;1.97;;
4102;SDS011;2065;49.790;9.620;2023-04-29T13:25:19;2.93;;;2.37;;
4102;SDS011;2065;49.790;9.620;2023-04-29T13:27:46;3.03;;;2.77;;
4102;SDS011;2065;49.790;9.620;2023-04-29T13:30:15;6.80;;;2.47;;
4102;SDS011;2065;49.790;9.620;2023-04-29T13:32:42;2.70;;;2.50;;
4102;SDS011;2065;49.790;9.620;2023-04-29T13:35:09;2.87;;;2.30;;
4102;SDS011;2065;49.790;9.620;2023-04-29T13:37:36;2.40;;;1.93;;
4102;SDS011;2065;49.790;9.620;2023-04-29T13:40:04;2.40;;;2.20;;
4102;SDS011;2065;49.790;9.620;2023-04-29T13:42:32;2.00;;;1.80;;
4102;SDS011;2065;49.790;9.620;2023-04-29T13:44:59;2.77;;;2.57;;
4102;SDS011;2065;49.790;9.620;2023-04-29T13:47:29;3.00;;;2.43;;
4102;SDS011;2065;49.790;9.620;2023-04-29T13:49:56;3.70;;;2.60;;
4102;SDS011;2065;49.790;9.620;2023-04-29T13:52:23;6.23;;;2.13;;
4102;SDS011;2065;49.790;9.620;2023-04-29T13:54:50;2.50;;;2.30;;
4102;SDS011;2065;49.790;9.620;2023-04-29T13:57:18;2.53;;;2.33;;
4102;SDS011;2065;49.790;9.620;2023-04-29T13:59:45;2.00;;;1.90;;
4102;SDS011;2065;49.790;9.620;2023-04-29T14:02:12;2.20;;;2.00;;
4102;SDS011;2065;49.790;9.620;2023-04-29T14:04:41;2.30;;;2.00;;
4102;SDS011;2065;49.790;9.620;2023-04-29T14:07:08;3.00;;;2.10;;
4102;SDS011;2065;49.790;9.620;2023-04-29T14:09:35;3.37;;;2.10;;
4102;SDS011;2065;49.790;9.620;2023-04-29T14:12:02;2.50;;;2.10;;
4102;SDS011;2065;49.790;9.620;2023-04-29T14:14:29;2.43;;;2.23;;
4102;SDS011;2065;49.790;9.620;2023-04-29T14:16:56;3.47;;;2.53;;
4102;SDS011;2065;49.790;9.620;2023-04-29T14:19:25;2.60;;;2.40;;
4102;SDS011;2065;49.790;9.620;2023-04-29T14:21:54;3.27;;;2.30;;
4102;SDS011;2065;49.790;9.620;2023-04-29T14:24:21;4.60;;;2.07;;
4102;SDS011;2065;49.790;9.620;2023-04-29T14:26:48;3.40;;;3.10;;
4102;SDS011;2065;49.790;9.620;2023-04-29T14:29:14;4.80;;;3.87;;
4102;SDS011;2065;49.790;9.620;2023-04-29T14:31:41;3.50;;;3.20;;
4102;SDS011;2065;49.790;9.620;2023-04-29T14:34:08;2.70;;;2.50;;
4102;SDS011;2065;49.790;9.620;2023-04-29T14:36:36;3.20;;;2.00;;
4102;SDS011;2065;49.790;9.620;2023-04-29T14:39:04;2.33;;;2.00;;
4102;SDS011;2065;49.790;9.620;2023-04-29T14:41:31;2.30;;;2.10;;
4102;SDS011;2065;49.790;9.620;2023-04-29T14:43:58;3.63;;;2.57;;
4102;SDS011;2065;49.790;9.620;2023-04-29T14:46:25;21.33;;;19.13;;
4102;SDS011;2065;49.790;9.620;2023-04-29T14:48:53;2.50;;;2.30;;
4102;SDS011;2065;49.790;9.620;2023-04-29T14:51:20;3.03;;;2.73;;
4102;SDS011;2065;49.790;9.620;2023-04-29T14:53:47;3.97;;;3.20;;
4102;SDS011;2065;49.790;9.620;2023-04-29T14:56:17;4.10;;;3.37;;
4102;SDS011;2065;49.790;9.620;2023-04-29T14:58:44;8.13;;;4.50;;
4102;SDS011;2065;49.790;9.620;2023-04-29T15:01:11;7.90;;;4.93;;
4102;SDS011;2065;49.790;9.620;2023-04-29T15:03:38;12.37;;;6.70;;
4102;SDS011;2065;49.790;9.620;2023-04-29T15:06:05;9.33;;;6.33;;
4102;SDS011;2065;49.790;9.620;2023-04-29T15:08:32;5.23;;;4.00;;
4102;SDS011;2065;49.790;9.620;2023-04-29T15:10:59;5.93;;;4.00;;
4102;SDS011;2065;49.790;9.620;2023-04-29T15:13:28;3.07;;;2.87;;
4102;SDS011;2065;49.790;9.620;2023-04-29T15:15:55;2.83;;;2.30;;
4102;SDS011;2065;49.790;9.620;2023-04-29T15:18:23;5.73;;;3.87;;
4102;SDS011;2065;49.790;9.620;2023-04-29T15:20:50;6.47;;;3.53;;
4102;SDS011;2065;49.790;9.620;2023-04-29T15:23:18;3.70;;;2.40;;
4102;SDS011;2065;49.790;9.620;2023-04-29T15:25:45;2.60;;;1.90;;
4102;SDS011;2065;49.790;9.620;2023-04-29T15:28:12;2.97;;;1.90;;
4102;SDS011;2065;49.790;9.620;2023-04-29T15:30:40;2.30;;;2.10;;